Arklow Raider — EIXS — position and weather

sailwx.info

Track history (hours):
 
Tides and Currents Weather Stations Pressure Air Temp Water Temp Dewpoint Dewpoint Depression Visibility Wind Speed Wind Dir Waves Ship Positions

Arklow Raider

Last reported at 2015-Mar-03 18:34 UTC. Time now 2015-Mar-03 18:48 UTC.
Position N 52°24' E 004°52'.

Length 90 m; draft 6.2 m.

Type: Ship. MMSI: 250001268.

Date/timePositionNaut miles runAvg speedWind from/ knotsBaromVisibWave heightAir tempDewpointWater temp
2015-Mar-03 18:34N 52°24' E 004°52'0 0.0
2015-Mar-03 17:34N 52°24' E 004°52'0 0.0
2015-Mar-03 16:33N 52°24' E 004°52'0 0.0
2015-Mar-03 15:34N 52°24' E 004°52'0 0.0
2015-Mar-03 14:33N 52°24' E 004°52'0 0.0
2015-Mar-03 13:33N 52°24' E 004°52'0 0.0
2015-Mar-03 12:34N 52°24' E 004°52'0 0.0
2015-Mar-03 11:34N 52°24' E 004°52'0 0.0
2015-Mar-03 10:33N 52°24' E 004°52'0 0.0
2015-Mar-03 09:34N 52°24' E 004°52'0 0.0
2015-Mar-03 08:34N 52°24' E 004°52'0 0.0
2015-Mar-03 07:33N 52°24' E 004°52'0 0.0
2015-Mar-03 06:34N 52°24' E 004°52'0 0.0
2015-Mar-03 05:33N 52°24' E 004°52'0 0.0
2015-Mar-03 04:34N 52°24' E 004°52'0 0.1
2015-Mar-03 03:33N 52°24' E 004°52'0 0.0
2015-Mar-03 02:33N 52°24' E 004°52'0 0.0
2015-Mar-03 01:33N 52°24' E 004°52'0 0.0
2015-Mar-03 00:33N 52°24' E 004°52'0 0.0
2015-Mar-02 23:33N 52°24' E 004°52'0 0.0
2015-Mar-02 22:33N 52°24' E 004°52'0 0.0
2015-Mar-02 21:33N 52°24' E 004°52'0 0.0
2015-Mar-02 20:33N 52°24' E 004°52'0 0.0
2015-Mar-02 19:33N 52°24' E 004°52'2 2.3
2015-Mar-02 18:34N 52°25' E 004°49'0 0.0
2015-Mar-02 17:34N 52°25' E 004°49'0 0.0
2015-Mar-02 16:34N 52°25' E 004°49'0 0.0
2015-Mar-02 15:34N 52°25' E 004°49'0 0.0
2015-Mar-02 14:34N 52°25' E 004°49'0 0.0
2015-Mar-02 13:33N 52°25' E 004°49'0 0.0
2015-Mar-02 12:34N 52°25' E 004°49'0 0.0
2015-Mar-02 11:34N 52°25' E 004°49'0 0.0
2015-Mar-02 10:34N 52°25' E 004°49'0 0.0
2015-Mar-02 09:34N 52°25' E 004°49'0 0.0
2015-Mar-02 08:34N 52°25' E 004°49'0 0.0
2015-Mar-02 07:34N 52°25' E 004°49'0 0.0
2015-Mar-02 06:34N 52°25' E 004°49'0 0.0
2015-Mar-02 05:34N 52°25' E 004°49'0 0.0
2015-Mar-02 04:34N 52°25' E 004°49'0 0.0
2015-Mar-02 03:33N 52°25' E 004°49'0 0.0
2015-Mar-02 02:34N 52°25' E 004°49'0 0.0
2015-Mar-02 01:34N 52°25' E 004°49'0 0.0
2015-Mar-02 00:34N 52°25' E 004°49'0 0.0
2015-Mar-01 23:34N 52°25' E 004°49'0 0.0
2015-Mar-01 22:34N 52°25' E 004°49'0 0.0
2015-Mar-01 21:34N 52°25' E 004°49'0 0.0
2015-Mar-01 20:34N 52°25' E 004°49'0 0.0
2015-Mar-01 19:33N 52°25' E 004°49'0 0.0
2015-Mar-01 18:34N 52°25' E 004°49'0 0.5
2015-Mar-01 17:34N 52°25' E 004°48'7 7.5
2015-Mar-01 16:33N 52°28' E 004°37'5 5.3
2015-Mar-01 15:34N 52°28' E 004°28'8 7.3
2015-Mar-01 14:31N 52°28' E 004°15'18 9.4
2015-Mar-01 12:33N 52°19' E 003°49'59 9.6
2015-Mar-01 06:24N 51°42' E 002°34'8 9.6
2015-Mar-01 05:33N 51°36' E 002°25'10 9.7
2015-Mar-01 04:32N 51°28' E 002°15'9 9.2
2015-Mar-01 03:33N 51°20' E 002°08'9 9.3
2015-Mar-01 02:32N 51°12' E 002°00'1111.2
2015-Mar-01 01:34N 51°06' E 001°46'1212.4
2015-Mar-01 00:33N 50°56' E 001°33'31810.6
2015-Feb-27 18:33N 48°17' W 005°31'1110.6
2015-Feb-27 17:33N 48°08' W 005°23'312 9.4
2015-Feb-26 08:32N 43°39' W 001°37'8 8.6
2015-Feb-26 07:34N 43°32' W 001°31'1 1.5
2015-Feb-26 06:33N 43°31' W 001°30'0 0.0
2015-Feb-26 05:33N 43°31' W 001°30'0 0.0
2015-Feb-26 04:33N 43°31' W 001°30'0 0.0
2015-Feb-26 03:33N 43°31' W 001°30'0 0.0
2015-Feb-26 02:33N 43°31' W 001°30'0 0.0
2015-Feb-26 01:33N 43°31' W 001°30'0 0.0
2015-Feb-26 00:33N 43°31' W 001°30'0 0.0
2015-Feb-25 23:33N 43°31' W 001°30'0 0.0
2015-Feb-25 22:33N 43°31' W 001°30'0 0.0
2015-Feb-25 21:33N 43°31' W 001°30'0 0.0
2015-Feb-25 20:33N 43°31' W 001°30'0 0.0
2015-Feb-25 19:33N 43°31' W 001°30'0 0.0
2015-Feb-25 18:33N 43°31' W 001°30'0 0.0
2015-Feb-25 17:33N 43°31' W 001°30'0 0.0
2015-Feb-25 16:33N 43°31' W 001°30'0 0.0
2015-Feb-25 15:33N 43°31' W 001°30'0 0.0
2015-Feb-25 14:33N 43°31' W 001°30'0 0.0
2015-Feb-25 13:33N 43°31' W 001°30'0 0.0
2015-Feb-25 12:33N 43°31' W 001°30'0 0.0
2015-Feb-25 11:33N 43°31' W 001°30'0 0.0
2015-Feb-25 10:33N 43°31' W 001°30'0 0.0
2015-Feb-25 09:33N 43°31' W 001°30'0 0.0
2015-Feb-25 08:33N 43°31' W 001°30'0 0.0
2015-Feb-25 07:33N 43°31' W 001°30'0 0.0
2015-Feb-25 06:33N 43°31' W 001°30'0 0.0
2015-Feb-25 05:33N 43°31' W 001°30'0 0.0
2015-Feb-25 04:33N 43°31' W 001°30'0 0.0
2015-Feb-25 03:33N 43°31' W 001°30'0 0.0
2015-Feb-25 02:33N 43°31' W 001°30'0 0.0
2015-Feb-25 01:33N 43°31' W 001°30'0 0.0
2015-Feb-25 00:33N 43°31' W 001°30'0 0.0
2015-Feb-24 23:33N 43°31' W 001°30'0 0.0
2015-Feb-24 22:33N 43°31' W 001°30'0 0.0
2015-Feb-24 21:33N 43°31' W 001°30'0 0.0
2015-Feb-24 20:33N 43°31' W 001°30'0 0.0
2015-Feb-24 19:33N 43°31' W 001°30'0 0.0
2015-Feb-24 18:33N 43°31' W 001°30'0 0.0
2015-Feb-24 17:33N 43°31' W 001°30'0 0.0
2015-Feb-24 16:33N 43°31' W 001°30'1 0.7
2015-Feb-24 15:28N 43°32' W 001°30'0 0.0
2015-Feb-24 14:25N 43°32' W 001°30'0 0.0
2015-Feb-24 10:25N 43°32' W 001°30'0 0.0
2015-Feb-24 09:25N 43°32' W 001°30'0 0.0
2015-Feb-24 08:34N 43°32' W 001°30'0 0.0
2015-Feb-24 07:34N 43°32' W 001°30'0 0.0
2015-Feb-24 06:31N 43°32' W 001°30'0 0.0
2015-Feb-24 05:28N 43°32' W 001°30'0 0.0
2015-Feb-24 03:19N 43°32' W 001°30'0 0.0
2015-Feb-24 01:31N 43°32' W 001°30'0 0.0
2015-Feb-24 00:25N 43°32' W 001°30'0 0.0
2015-Feb-23 23:31N 43°32' W 001°30'0 0.0
2015-Feb-23 20:13N 43°32' W 001°30'0 0.0
2015-Feb-23 19:22N 43°32' W 001°30'0 0.0
2015-Feb-23 18:34N 43°32' W 001°30'0 0.0
2015-Feb-23 14:34N 43°32' W 001°30'0 0.0
2015-Feb-23 13:31N 43°32' W 001°30'0 0.0
2015-Feb-23 12:31N 43°32' W 001°30'0 0.0
2015-Feb-23 11:28N 43°32' W 001°30'0 0.0
2015-Feb-23 09:16N 43°32' W 001°30'0 0.0
2015-Feb-23 08:28N 43°32' W 001°30'0 0.0
2015-Feb-23 06:25N 43°32' W 001°30'0 0.0
2015-Feb-23 05:16N 43°32' W 001°30'0 0.0
2015-Feb-22 22:04N 43°32' W 001°30'0 0.0
2015-Feb-22 15:16N 43°32' W 001°30'0 0.0
2015-Feb-22 14:28N 43°32' W 001°30'0 0.0
2015-Feb-22 12:28N 43°32' W 001°30'0 0.0
2015-Feb-22 09:10N 43°32' W 001°30'0 0.0
2015-Feb-22 08:31N 43°32' W 001°30'0 0.0
2015-Feb-22 07:25N 43°32' W 001°30'0 0.0
2015-Feb-22 06:22N 43°32' W 001°30'0 0.0
2015-Feb-22 05:25N 43°32' W 001°30'0 0.0
2015-Feb-22 04:34N 43°32' W 001°30'0 0.0
2015-Feb-22 03:04N 43°32' W 001°30'0 0.0
2015-Feb-22 02:22N 43°32' W 001°30'0 0.0
2015-Feb-22 01:04N 43°32' W 001°30'0 0.0
2015-Feb-22 00:13N 43°32' W 001°30'0 0.0
2015-Feb-21 22:34N 43°32' W 001°30'0 0.0
2015-Feb-21 21:28N 43°32' W 001°30'0 0.0
2015-Feb-21 20:28N 43°32' W 001°30'  
Track history (hours):
 
Tides and Currents Weather Stations Pressure Air Temp Water Temp Dewpoint Dewpoint Depression Visibility Wind Speed Wind Dir Waves Ship Positions

Arklow Raider

Last reported at 2015-Mar-03 18:34 UTC. Time now 2015-Mar-03 18:48 UTC.
Position N 52°24' E 004°52'.

Length 90 m; draft 6.2 m.

Type: Ship. MMSI: 250001268.

Date/timePositionNaut miles runAvg speedWind from/ knotsBaromVisibWave heightAir tempDewpointWater temp
2015-Mar-03 18:34N 52°24' E 004°52'0 0.0
2015-Mar-03 17:34N 52°24' E 004°52'0 0.0
2015-Mar-03 16:33N 52°24' E 004°52'0 0.0
2015-Mar-03 15:34N 52°24' E 004°52'0 0.0
2015-Mar-03 14:33N 52°24' E 004°52'0 0.0
2015-Mar-03 13:33N 52°24' E 004°52'0 0.0
2015-Mar-03 12:34N 52°24' E 004°52'0 0.0
2015-Mar-03 11:34N 52°24' E 004°52'0 0.0
2015-Mar-03 10:33N 52°24' E 004°52'0 0.0
2015-Mar-03 09:34N 52°24' E 004°52'0 0.0
2015-Mar-03 08:34N 52°24' E 004°52'0 0.0
2015-Mar-03 07:33N 52°24' E 004°52'0 0.0
2015-Mar-03 06:34N 52°24' E 004°52'0 0.0
2015-Mar-03 05:33N 52°24' E 004°52'0 0.0
2015-Mar-03 04:34N 52°24' E 004°52'0 0.1
2015-Mar-03 03:33N 52°24' E 004°52'0 0.0
2015-Mar-03 02:33N 52°24' E 004°52'0 0.0
2015-Mar-03 01:33N 52°24' E 004°52'0 0.0
2015-Mar-03 00:33N 52°24' E 004°52'0 0.0
2015-Mar-02 23:33N 52°24' E 004°52'0 0.0
2015-Mar-02 22:33N 52°24' E 004°52'0 0.0
2015-Mar-02 21:33N 52°24' E 004°52'0 0.0
2015-Mar-02 20:33N 52°24' E 004°52'0 0.0
2015-Mar-02 19:33N 52°24' E 004°52'2 2.3
2015-Mar-02 18:34N 52°25' E 004°49'0 0.0
2015-Mar-02 17:34N 52°25' E 004°49'0 0.0
2015-Mar-02 16:34N 52°25' E 004°49'0 0.0
2015-Mar-02 15:34N 52°25' E 004°49'0 0.0
2015-Mar-02 14:34N 52°25' E 004°49'0 0.0
2015-Mar-02 13:33N 52°25' E 004°49'0 0.0
2015-Mar-02 12:34N 52°25' E 004°49'0 0.0
2015-Mar-02 11:34N 52°25' E 004°49'0 0.0
2015-Mar-02 10:34N 52°25' E 004°49'0 0.0
2015-Mar-02 09:34N 52°25' E 004°49'0 0.0
2015-Mar-02 08:34N 52°25' E 004°49'0 0.0
2015-Mar-02 07:34N 52°25' E 004°49'0 0.0
2015-Mar-02 06:34N 52°25' E 004°49'0 0.0
2015-Mar-02 05:34N 52°25' E 004°49'0 0.0
2015-Mar-02 04:34N 52°25' E 004°49'0 0.0
2015-Mar-02 03:33N 52°25' E 004°49'0 0.0
2015-Mar-02 02:34N 52°25' E 004°49'0 0.0
2015-Mar-02 01:34N 52°25' E 004°49'0 0.0
2015-Mar-02 00:34N 52°25' E 004°49'0 0.0
2015-Mar-01 23:34N 52°25' E 004°49'0 0.0
2015-Mar-01 22:34N 52°25' E 004°49'0 0.0
2015-Mar-01 21:34N 52°25' E 004°49'0 0.0
2015-Mar-01 20:34N 52°25' E 004°49'0 0.0
2015-Mar-01 19:33N 52°25' E 004°49'0 0.0
2015-Mar-01 18:34N 52°25' E 004°49'0 0.5
2015-Mar-01 17:34N 52°25' E 004°48'7 7.5
2015-Mar-01 16:33N 52°28' E 004°37'5 5.3
2015-Mar-01 15:34N 52°28' E 004°28'8 7.3
2015-Mar-01 14:31N 52°28' E 004°15'18 9.4
2015-Mar-01 12:33N 52°19' E 003°49'59 9.6
2015-Mar-01 06:24N 51°42' E 002°34'8 9.6
2015-Mar-01 05:33N 51°36' E 002°25'10 9.7
2015-Mar-01 04:32N 51°28' E 002°15'9 9.2
2015-Mar-01 03:33N 51°20' E 002°08'9 9.3
2015-Mar-01 02:32N 51°12' E 002°00'1111.2
2015-Mar-01 01:34N 51°06' E 001°46'1212.4
2015-Mar-01 00:33N 50°56' E 001°33'31810.6
2015-Feb-27 18:33N 48°17' W 005°31'1110.6
2015-Feb-27 17:33N 48°08' W 005°23'312 9.4
2015-Feb-26 08:32N 43°39' W 001°37'8 8.6
2015-Feb-26 07:34N 43°32' W 001°31'1 1.5
2015-Feb-26 06:33N 43°31' W 001°30'0 0.0
2015-Feb-26 05:33N 43°31' W 001°30'0 0.0
2015-Feb-26 04:33N 43°31' W 001°30'0 0.0
2015-Feb-26 03:33N 43°31' W 001°30'0 0.0
2015-Feb-26 02:33N 43°31' W 001°30'0 0.0
2015-Feb-26 01:33N 43°31' W 001°30'0 0.0
2015-Feb-26 00:33N 43°31' W 001°30'0 0.0
2015-Feb-25 23:33N 43°31' W 001°30'0 0.0
2015-Feb-25 22:33N 43°31' W 001°30'0 0.0
2015-Feb-25 21:33N 43°31' W 001°30'0 0.0
2015-Feb-25 20:33N 43°31' W 001°30'0 0.0
2015-Feb-25 19:33N 43°31' W 001°30'0 0.0
2015-Feb-25 18:33N 43°31' W 001°30'0 0.0
2015-Feb-25 17:33N 43°31' W 001°30'0 0.0
2015-Feb-25 16:33N 43°31' W 001°30'0 0.0
2015-Feb-25 15:33N 43°31' W 001°30'0 0.0
2015-Feb-25 14:33N 43°31' W 001°30'0 0.0
2015-Feb-25 13:33N 43°31' W 001°30'0 0.0
2015-Feb-25 12:33N 43°31' W 001°30'0 0.0
2015-Feb-25 11:33N 43°31' W 001°30'0 0.0
2015-Feb-25 10:33N 43°31' W 001°30'0 0.0
2015-Feb-25 09:33N 43°31' W 001°30'0 0.0
2015-Feb-25 08:33N 43°31' W 001°30'0 0.0
2015-Feb-25 07:33N 43°31' W 001°30'0 0.0
2015-Feb-25 06:33N 43°31' W 001°30'0 0.0
2015-Feb-25 05:33N 43°31' W 001°30'0 0.0
2015-Feb-25 04:33N 43°31' W 001°30'0 0.0
2015-Feb-25 03:33N 43°31' W 001°30'0 0.0
2015-Feb-25 02:33N 43°31' W 001°30'0 0.0
2015-Feb-25 01:33N 43°31' W 001°30'0 0.0
2015-Feb-25 00:33N 43°31' W 001°30'0 0.0
2015-Feb-24 23:33N 43°31' W 001°30'0 0.0
2015-Feb-24 22:33N 43°31' W 001°30'0 0.0
2015-Feb-24 21:33N 43°31' W 001°30'0 0.0
2015-Feb-24 20:33N 43°31' W 001°30'0 0.0
2015-Feb-24 19:33N 43°31' W 001°30'0 0.0
2015-Feb-24 18:33N 43°31' W 001°30'0 0.0
2015-Feb-24 17:33N 43°31' W 001°30'0 0.0
2015-Feb-24 16:33N 43°31' W 001°30'1 0.7
2015-Feb-24 15:28N 43°32' W 001°30'0 0.0
2015-Feb-24 14:25N 43°32' W 001°30'0 0.0
2015-Feb-24 10:25N 43°32' W 001°30'0 0.0
2015-Feb-24 09:25N 43°32' W 001°30'0 0.0
2015-Feb-24 08:34N 43°32' W 001°30'0 0.0
2015-Feb-24 07:34N 43°32' W 001°30'0 0.0
2015-Feb-24 06:31N 43°32' W 001°30'0 0.0
2015-Feb-24 05:28N 43°32' W 001°30'0 0.0
2015-Feb-24 03:19N 43°32' W 001°30'0 0.0
2015-Feb-24 01:31N 43°32' W 001°30'0 0.0
2015-Feb-24 00:25N 43°32' W 001°30'0 0.0
2015-Feb-23 23:31N 43°32' W 001°30'0 0.0
2015-Feb-23 20:13N 43°32' W 001°30'0 0.0
2015-Feb-23 19:22N 43°32' W 001°30'0 0.0
2015-Feb-23 18:34N 43°32' W 001°30'0 0.0
2015-Feb-23 14:34N 43°32' W 001°30'0 0.0
2015-Feb-23 13:31N 43°32' W 001°30'0 0.0
2015-Feb-23 12:31N 43°32' W 001°30'0 0.0
2015-Feb-23 11:28N 43°32' W 001°30'0 0.0
2015-Feb-23 09:16N 43°32' W 001°30'0 0.0
2015-Feb-23 08:28N 43°32' W 001°30'0 0.0
2015-Feb-23 06:25N 43°32' W 001°30'0 0.0
2015-Feb-23 05:16N 43°32' W 001°30'0 0.0
2015-Feb-22 22:04N 43°32' W 001°30'0 0.0
2015-Feb-22 15:16N 43°32' W 001°30'0 0.0
2015-Feb-22 14:28N 43°32' W 001°30'0 0.0
2015-Feb-22 12:28N 43°32' W 001°30'0 0.0
2015-Feb-22 09:10N 43°32' W 001°30'0 0.0
2015-Feb-22 08:31N 43°32' W 001°30'0 0.0
2015-Feb-22 07:25N 43°32' W 001°30'0 0.0
2015-Feb-22 06:22N 43°32' W 001°30'0 0.0
2015-Feb-22 05:25N 43°32' W 001°30'0 0.0
2015-Feb-22 04:34N 43°32' W 001°30'0 0.0
2015-Feb-22 03:04N 43°32' W 001°30'0 0.0
2015-Feb-22 02:22N 43°32' W 001°30'0 0.0
2015-Feb-22 01:04N 43°32' W 001°30'0 0.0
2015-Feb-22 00:13N 43°32' W 001°30'0 0.0
2015-Feb-21 22:34N 43°32' W 001°30'0 0.0
2015-Feb-21 21:28N 43°32' W 001°30'0 0.0
2015-Feb-21 20:28N 43°32' W 001°30'  

Dump ship's entire track history